Time;durP1;ratioP1;P1;durP2;ratioP2;P2;SDS_P1;SDS_P2;PMS_P1;PMS_P2;Temp;Humidity;BMP_temperature;BMP_pressure;BME280_temperature;BME280_humidity;BME280_pressure;Samples;Min_cycle;Max_cycle;Signal;HPM_P1;HPM_P2
2024/01/17 00:04:54;;;;;;;34.50;14.70;;;;;;;-0.71;100.00;99636.59;215560;1307;140144;-91
2024/01/17 00:09:58;;;;;;;36.20;14.00;;;;;;;-0.72;100.00;99636.57;214712;1307;140801;-94
2024/01/17 00:14:59;;;;;;;30.50;12.60;;;;;;;-0.73;100.00;99629.25;215719;1308;105868;-91
2024/01/17 00:19:59;;;;;;;33.10;14.70;;;;;;;-0.73;100.00;99631.90;214653;1306;140148;-92
2024/01/17 00:25:00;;;;;;;33.30;15.20;;;;;;;-0.75;100.00;99635.33;215363;1306;139405;-90
2024/01/17 00:30:00;;;;;;;40.50;15.30;;;;;;;-0.79;100.00;99635.72;214722;1308;139671;-91
2024/01/17 00:35:02;;;;;;;35.60;14.70;;;;;;;-0.82;100.00;99629.94;215272;1306;139536;-93
2024/01/17 00:40:03;;;;;;;32.20;14.10;;;;;;;-0.85;100.00;99625.75;214860;1307;139909;-91
2024/01/17 00:45:04;;;;;;;36.70;16.30;;;;;;;-0.87;100.00;99622.59;215244;1308;95439;-92
2024/01/17 00:50:07;;;;;;;33.70;14.80;;;;;;;-0.89;100.00;99618.61;214606;1307;140462;-91
2024/01/17 00:55:08;;;;;;;37.20;14.80;;;;;;;-0.92;100.00;99612.39;214972;1308;140186;-94
2024/01/17 01:00:09;;;;;;;30.90;13.10;;;;;;;-0.93;100.00;99615.35;214567;1307;140528;-92
2024/01/17 01:05:11;;;;;;;25.70;12.30;;;;;;;-0.94;100.00;99607.65;214962;1307;139716;-93
2024/01/17 01:10:12;;;;;;;30.00;12.30;;;;;;;-0.95;100.00;99603.52;214441;1307;142409;-93
2024/01/17 01:15:12;;;;;;;30.70;14.80;;;;;;;-0.96;100.00;99593.52;215050;1308;103869;-94
2024/01/17 01:20:13;;;;;;;33.00;13.70;;;;;;;-0.99;100.00;99596.91;214338;1309;140185;-93
2024/01/17 01:25:13;;;;;;;30.50;13.40;;;;;;;-1.02;100.00;99592.91;214907;1307;140053;-93
2024/01/17 01:30:14;;;;;;;29.30;12.80;;;;;;;-1.06;100.00;99594.82;214482;1307;141987;-93
2024/01/17 01:35:14;;;;;;;26.60;13.70;;;;;;;-1.09;100.00;99593.21;215012;1308;140017;-94
2024/01/17 01:40:15;;;;;;;31.40;13.40;;;;;;;-1.13;100.00;99591.12;214408;1308;139800;-92
2024/01/17 01:45:15;;;;;;;28.70;13.30;;;;;;;-1.18;100.00;99581.41;215144;1307;94595;-93
2024/01/17 01:50:16;;;;;;;29.10;13.00;;;;;;;-1.24;100.00;99580.75;214486;1307;139228;-93
2024/01/17 01:55:17;;;;;;;34.50;12.40;;;;;;;-1.31;100.00;99575.52;214816;1307;139430;-92
2024/01/17 02:00:20;;;;;;;32.70;12.90;;;;;;;-1.37;100.00;99571.23;214697;1308;139985;-93
2024/01/17 02:05:20;;;;;;;30.10;12.60;;;;;;;-1.41;100.00;99570.28;214753;1309;140824;-93
2024/01/17 02:10:21;;;;;;;33.00;13.10;;;;;;;-1.47;100.00;99567.18;213885;1309;139875;-93
2024/01/17 02:15:22;;;;;;;22.00;10.10;;;;;;;-1.51;100.00;99569.60;214736;1310;105329;-93
2024/01/17 02:20:22;;;;;;;24.50;12.20;;;;;;;-1.60;100.00;99572.13;214159;1309;139958;-93
2024/01/17 02:25:23;;;;;;;28.50;12.70;;;;;;;-1.64;100.00;99575.24;214660;1310;139783;-92
2024/01/17 02:30:23;;;;;;;30.40;13.20;;;;;;;-1.68;100.00;99572.77;214070;1310;139608;-92
2024/01/17 02:35:24;;;;;;;30.00;13.00;;;;;;;-1.74;100.00;99574.26;214548;1311;139696;-91
2024/01/17 02:40:24;;;;;;;26.60;12.20;;;;;;;-1.81;100.00;99571.23;213860;1310;140480;-92
2024/01/17 02:45:24;;;;;;;33.50;13.20;;;;;;;-1.89;100.00;99571.67;214658;1309;94657;-92
2024/01/17 02:50:25;;;;;;;25.20;11.50;;;;;;;-1.95;100.00;99568.98;214274;1309;140270;-92
2024/01/17 02:55:26;;;;;;;31.70;12.80;;;;;;;-2.01;100.00;99564.84;214677;1309;139854;-92
2024/01/17 03:00:26;;;;;;;29.00;13.20;;;;;;;-2.05;100.00;99559.09;214178;1310;139994;-92
2024/01/17 03:05:26;;;;;;;23.60;11.70;;;;;;;-2.10;100.00;99553.36;214578;1310;139487;-92
2024/01/17 03:10:27;;;;;;;27.30;11.70;;;;;;;-2.16;100.00;99549.60;214152;1309;140943;-93
2024/01/17 03:15:27;;;;;;;31.10;11.90;;;;;;;-2.22;100.00;99545.79;214892;1310;94704;-92
2024/01/17 03:20:28;;;;;;;27.90;11.70;;;;;;;-2.28;100.00;99541.17;214186;1310;139917;-93
2024/01/17 03:25:28;;;;;;;28.80;12.40;;;;;;;-2.39;100.00;99540.48;214662;1310;140875;-92
2024/01/17 03:30:28;;;;;;;30.10;13.80;;;;;;;-2.50;100.00;99532.60;214260;1309;139856;-91
2024/01/17 03:35:29;;;;;;;31.90;14.00;;;;;;;-2.61;100.00;99525.21;214761;1309;139384;-92
2024/01/17 03:40:29;;;;;;;25.30;11.70;;;;;;;-2.71;100.00;99522.10;214013;1311;139469;-91
2024/01/17 03:45:29;;;;;;;37.70;14.80;;;;;;;-2.81;100.00;99512.54;214628;1310;94890;-92
2024/01/17 03:50:30;;;;;;;32.80;15.40;;;;;;;-2.86;100.00;99510.62;214267;1309;140313;-91
2024/01/17 03:55:30;;;;;;;37.70;15.20;;;;;;;-2.96;100.00;99502.83;214640;1310;139133;-92
2024/01/17 04:00:30;;;;;;;34.90;15.50;;;;;;;-3.03;100.00;99498.14;214211;1309;139861;-91
2024/01/17 04:05:31;;;;;;;31.30;13.30;;;;;;;-3.08;100.00;99488.14;214654;1310;139295;-91
2024/01/17 04:10:31;;;;;;;31.50;14.30;;;;;;;-3.15;100.00;99488.86;214201;1310;140131;-91
2024/01/17 04:15:32;;;;;;;30.70;13.20;;;;;;;-3.21;100.00;99484.23;214756;1310;139257;-91
2024/01/17 04:20:33;;;;;;;33.60;14.40;;;;;;;-3.22;100.00;99477.88;214402;1309;140108;-90
2024/01/17 04:25:33;;;;;;;29.40;13.10;;;;;;;-3.24;100.00;99474.48;214504;1310;139637;-90
2024/01/17 04:30:34;;;;;;;35.30;15.30;;;;;;;-3.28;100.00;99468.98;214282;1310;140602;-91
2024/01/17 04:35:34;;;;;;;27.10;12.90;;;;;;;-3.35;100.00;99464.72;214674;1309;139796;-91
2024/01/17 04:40:35;;;;;;;36.60;14.60;;;;;;;-3.45;100.00;99457.35;214181;1310;140146;-91
2024/01/17 04:45:35;;;;;;;30.50;14.90;;;;;;;-3.59;100.00;99445.29;214733;1310;140374;-91
2024/01/17 04:50:36;;;;;;;31.40;14.80;;;;;;;-3.73;100.00;99430.42;214265;1310;139678;-91
2024/01/17 04:55:39;;;;;;;32.10;15.10;;;;;;;-3.80;100.00;99425.18;214808;1310;139162;-90
2024/01/17 05:00:39;;;;;;;27.40;12.40;;;;;;;-3.80;100.00;99420.02;214256;1310;139885;-90
2024/01/17 05:05:45;;;;;;;35.00;15.20;;;;;;;-3.85;100.00;99417.14;215013;1308;140079;-91
2024/01/17 05:10:46;;;;;;;31.30;14.10;;;;;;;-3.91;100.00;99415.84;214603;1307;141102;-90
2024/01/17 05:15:47;;;;;;;39.10;15.70;;;;;;;-3.94;100.00;99414.08;215174;1307;140136;-90
2024/01/17 05:20:47;;;;;;;50.40;18.60;;;;;;;-4.00;100.00;99421.23;214585;1307;139650;-90
2024/01/17 05:25:48;;;;;;;43.40;19.80;;;;;;;-4.03;100.00;99415.23;215182;1307;139135;-90
2024/01/17 05:30:48;;;;;;;39.10;19.60;;;;;;;-4.10;100.00;99413.52;214664;1307;140105;-90
2024/01/17 05:35:48;;;;;;;34.50;17.00;;;;;;;-4.17;100.00;99411.12;215203;1308;139568;-89
2024/01/17 05:40:49;;;;;;;32.20;16.40;;;;;;;-4.22;100.00;99404.27;214610;1308;140437;-90
2024/01/17 05:45:50;;;;;;;40.40;17.30;;;;;;;-4.25;100.00;99396.42;215191;1307;141003;-90
2024/01/17 05:50:51;;;;;;;39.10;17.50;;;;;;;-4.30;100.00;99395.77;214523;1308;140256;-90
2024/01/17 05:55:52;;;;;;;43.10;18.10;;;;;;;-4.29;100.00;99399.59;214988;1307;140329;-90
2024/01/17 06:00:53;;;;;;;38.00;16.50;;;;;;;-4.32;100.00;99395.08;214560;1307;140220;-90
2024/01/17 06:05:54;;;;;;;37.20;17.50;;;;;;;-4.41;100.00;99400.66;215110;1307;138315;-90
2024/01/17 06:10:54;;;;;;;45.70;18.90;;;;;;;-4.46;100.00;99394.84;214663;1307;139652;-89
2024/01/17 06:15:54;;;;;;;37.10;16.90;;;;;;;-4.49;100.00;99401.00;214985;1307;139297;-90
2024/01/17 06:20:55;;;;;;;34.60;15.80;;;;;;;-4.51;100.00;99397.95;214711;1307;140417;-90
2024/01/17 06:25:56;;;;;;;37.50;16.60;;;;;;;-4.52;100.00;99393.30;214922;1308;140847;-89
2024/01/17 06:30:56;;;;;;;38.20;16.90;;;;;;;-4.52;100.00;99390.81;214637;1307;140472;-89
2024/01/17 06:35:57;;;;;;;32.30;15.10;;;;;;;-4.52;100.00;99380.19;214973;1308;140186;-89
2024/01/17 06:40:58;;;;;;;34.60;15.50;;;;;;;-4.53;100.00;99375.08;214531;1307;139990;-90
2024/01/17 06:45:58;;;;;;;36.10;16.30;;;;;;;-4.51;100.00;99360.46;215047;1309;139373;-90
2024/01/17 06:50:58;;;;;;;37.70;17.20;;;;;;;-4.49;100.00;99348.38;214601;1308;141243;-89
2024/01/17 06:55:59;;;;;;;35.70;16.00;;;;;;;-4.49;100.00;99342.11;214887;1308;139202;-89
2024/01/17 07:01:00;;;;;;;39.70;18.90;;;;;;;-4.53;100.00;99338.02;214553;1307;140620;-90
2024/01/17 07:06:00;;;;;;;36.30;17.70;;;;;;;-4.55;100.00;99334.31;215013;1308;140201;-89
2024/01/17 07:11:00;;;;;;;38.00;18.80;;;;;;;-4.58;100.00;99327.10;214519;1308;141975;-89
2024/01/17 07:16:03;;;;;;;42.10;19.20;;;;;;;-4.62;100.00;99316.45;214877;1308;140825;-89
2024/01/17 07:21:07;;;;;;;44.90;19.90;;;;;;;-4.70;100.00;99307.56;214733;1311;140880;-88
2024/01/17 07:26:08;;;;;;;47.30;22.20;;;;;;;-4.67;100.00;99304.00;214948;1308;140324;-89
2024/01/17 07:31:08;;;;;;;43.30;20.20;;;;;;;-4.66;100.00;99300.94;214427;1309;300222;-90
2024/01/17 07:36:09;;;;;;;45.30;20.80;;;;;;;-4.66;100.00;99295.33;215178;1308;139485;-89
2024/01/17 07:41:09;;;;;;;44.00;21.10;;;;;;;-4.65;100.00;99285.73;214380;1311;140161;-90
2024/01/17 07:46:12;;;;;;;52.50;23.00;;;;;;;-4.63;100.00;99273.83;215184;1308;140076;-90
2024/01/17 07:51:15;;;;;;;48.10;23.10;;;;;;;-4.65;100.00;99265.45;214499;1308;139973;-89
2024/01/17 07:56:15;;;;;;;43.90;22.30;;;;;;;-4.64;100.00;99255.23;214998;1307;140066;-89
2024/01/17 08:01:16;;;;;;;48.50;22.70;;;;;;;-4.64;100.00;99246.59;214666;1308;140249;-88
2024/01/17 08:06:17;;;;;;;51.50;23.80;;;;;;;-4.64;100.00;99240.42;215023;1307;140131;-90
2024/01/17 08:11:17;;;;;;;57.90;24.60;;;;;;;-4.62;100.00;99227.80;214630;1308;140156;-89
2024/01/17 08:16:17;;;;;;;48.90;21.80;;;;;;;-4.56;100.00;99221.44;214990;1307;139695;-88
2024/01/17 08:21:18;;;;;;;41.80;21.00;;;;;;;-4.53;100.00;99211.48;214729;1308;140483;-88
2024/01/17 08:26:18;;;;;;;37.90;20.40;;;;;;;-4.48;100.00;99201.93;214991;1309;139683;-89
2024/01/17 08:31:18;;;;;;;40.90;18.80;;;;;;;-4.37;100.00;99192.95;214628;1308;140437;-89
2024/01/17 08:36:19;;;;;;;42.70;20.00;;;;;;;-4.30;100.00;99186.64;215029;1308;140445;-88
2024/01/17 08:41:19;;;;;;;45.10;23.00;;;;;;;-4.21;100.00;99167.17;214573;1307;140385;-87
2024/01/17 08:46:20;;;;;;;50.90;24.40;;;;;;;-4.17;100.00;99155.24;215208;1307;139891;-89
2024/01/17 08:51:22;;;;;;;54.50;22.10;;;;;;;-4.09;100.00;99148.38;214678;1307;139909;-88
2024/01/17 08:56:22;;;;;;;53.30;23.50;;;;;;;-3.94;100.00;99139.09;215061;1307;139241;-88
2024/01/17 09:01:22;;;;;;;47.90;23.40;;;;;;;-3.83;100.00;99133.31;214420;1307;140535;-90
2024/01/17 09:06:23;;;;;;;49.00;22.70;;;;;;;-3.68;100.00;99123.31;215226;1307;139632;-90
2024/01/17 09:11:24;;;;;;;48.30;21.30;;;;;;;-3.51;100.00;99117.95;214589;1308;140315;-90
2024/01/17 09:16:24;;;;;;;44.10;19.50;;;;;;;-3.36;100.00;99105.83;214922;1308;139637;-91
2024/01/17 09:21:25;;;;;;;42.70;20.50;;;;;;;-3.25;100.00;99094.45;214531;1307;140143;-90
2024/01/17 09:26:25;;;;;;;45.30;21.60;;;;;;;-3.13;100.00;99086.23;215195;1308;140181;-91
2024/01/17 09:31:25;;;;;;;81.40;31.10;;;;;;;-3.05;100.00;99078.64;214470;1307;140559;-89
2024/01/17 09:36:26;;;;;;;74.70;30.00;;;;;;;-2.93;100.00;99070.61;215099;1307;139590;-89
2024/01/17 09:41:26;;;;;;;56.10;23.70;;;;;;;-2.80;100.00;99055.08;214642;1307;140251;-90
2024/01/17 09:46:29;;;;;;;58.60;26.20;;;;;;;-2.63;100.00;99042.78;215002;1307;139456;-89
2024/01/17 09:51:32;;;;;;;60.20;24.60;;;;;;;-2.61;100.00;99029.35;214759;1307;141584;-90
2024/01/17 09:56:34;;;;;;;56.10;24.60;;;;;;;-2.59;100.00;99014.70;215039;1307;111305;-89
2024/01/17 10:01:36;;;;;;;46.70;22.30;;;;;;;-2.47;100.00;99003.27;214430;1307;140694;-91
2024/01/17 10:06:39;;;;;;;60.50;26.70;;;;;;;-2.38;100.00;98989.86;215189;1307;139810;-90
2024/01/17 10:11:40;;;;;;;52.30;24.30;;;;;;;-2.25;100.00;98987.17;214601;1307;140164;-90
2024/01/17 10:16:40;;;;;;;45.30;22.00;;;;;;;-2.10;100.00;98991.07;214992;1307;139588;-90
2024/01/17 10:21:41;;;;;;;46.20;21.90;;;;;;;-2.00;100.00;98978.27;214625;1307;140901;-90
2024/01/17 10:26:44;;;;;;;51.80;24.40;;;;;;;-1.94;100.00;98969.34;215329;1307;96280;-89
2024/01/17 10:31:44;;;;;;;50.50;23.70;;;;;;;-1.83;100.00;98963.71;214447;1308;139635;-91
2024/01/17 10:36:45;;;;;;;53.90;22.20;;;;;;;-1.71;100.00;98953.23;215146;1307;139681;-88
2024/01/17 10:41:51;;;;;;;48.20;22.20;;;;;;;-1.60;100.00;98941.36;214686;1307;140163;-89
2024/01/17 10:46:53;;;;;;;48.70;23.10;;;;;;;-1.55;100.00;98923.02;215153;1307;140214;-91
2024/01/17 10:52:02;;;;;;;54.00;25.00;;;;;;;-1.52;100.00;98904.27;214323;1307;139990;-91
2024/01/17 10:57:07;;;;;;;47.40;22.50;;;;;;;-1.49;100.00;98890.96;215086;1307;95929;-89
2024/01/17 11:02:19;;;;;;;46.10;23.10;;;;;;;-1.46;100.00;98877.77;214474;1308;141245;-92
2024/01/17 11:07:21;;;;;;;53.10;21.30;;;;;;;-1.41;100.00;98853.42;214964;1307;139897;-89
2024/01/17 11:12:23;;;;;;;42.30;20.30;;;;;;;-1.35;100.00;98841.68;214480;1307;140463;-90
2024/01/17 11:17:28;;;;;;;53.50;22.90;;;;;;;-1.26;100.00;98820.46;215266;1307;139682;-90
2024/01/17 11:22:30;;;;;;;46.80;21.40;;;;;;;-1.15;100.00;98810.33;214463;1307;140295;-92
2024/01/17 11:27:30;;;;;;;44.50;21.40;;;;;;;-1.04;100.00;98796.70;215339;1307;97115;-92
2024/01/17 11:32:59;;;;;;;51.30;21.80;;;;;;;-0.93;100.00;98787.14;214543;1307;141033;-91
2024/01/17 11:38:02;;;;;;;44.70;20.00;;;;;;;-0.82;100.00;98782.11;215127;1307;139539;-91
2024/01/17 11:43:03;;;;;;;46.80;19.60;;;;;;;-0.74;100.00;98784.66;214634;1307;141747;-89
2024/01/17 11:48:29;;;;;;;42.60;19.50;;;;;;;-0.68;100.00;98775.26;214784;1307;140671;-92
2024/01/17 11:53:31;;;;;;;47.10;20.40;;;;;;;-0.60;100.00;98754.48;214388;1307;140224;-90
2024/01/17 11:58:42;;;;;;;42.50;19.70;;;;;;;-0.60;100.00;98730.18;215035;1307;139880;-89
2024/01/17 12:03:43;;;;;;;43.30;19.10;;;;;;;-0.59;100.00;98705.27;214374;1307;139539;-90
2024/01/17 12:08:44;;;;;;;47.10;21.10;;;;;;;-0.59;100.00;98697.79;215138;1307;96757;-91
2024/01/17 12:13:47;;;;;;;48.20;21.00;;;;;;;-0.64;100.00;98687.09;214406;1307;139510;-90
2024/01/17 12:18:59;;;;;;;45.00;20.20;;;;;;;-0.68;100.00;98683.27;214935;1307;139546;-91
2024/01/17 12:23:59;;;;;;;50.60;23.30;;;;;;;-0.70;100.00;98675.17;214365;1308;140303;-91
2024/01/17 12:29:10;;;;;;;47.70;22.90;;;;;;;-0.70;100.00;98669.55;215132;1307;140407;-91
2024/01/17 12:34:11;;;;;;;46.50;21.50;;;;;;;-0.73;100.00;98661.20;214415;1307;140544;-92
2024/01/17 12:39:12;;;;;;;44.50;21.50;;;;;;;-0.75;100.00;98647.90;214789;1307;111489;-91
2024/01/17 12:44:13;;;;;;;43.90;20.40;;;;;;;-0.75;100.00;98638.54;214493;1307;140986;-93
2024/01/17 12:49:14;;;;;;;50.30;21.60;;;;;;;-0.74;100.00;98624.24;215206;1307;139263;-92
2024/01/17 12:54:19;;;;;;;40.40;19.90;;;;;;;-0.70;100.00;98615.01;214229;1307;139688;-91
2024/01/17 12:59:19;;;;;;;40.20;18.10;;;;;;;-0.69;100.00;98597.34;214802;1307;139512;-91
2024/01/17 13:04:19;;;;;;;39.00;19.10;;;;;;;-0.66;100.00;98581.55;214719;1307;140076;-91
2024/01/17 13:09:22;;;;;;;37.60;18.90;;;;;;;-0.63;100.00;98571.98;215364;1307;96044;-90
2024/01/17 13:14:24;;;;;;;39.10;18.40;;;;;;;-0.64;100.00;98563.91;214307;1307;140246;-91
2024/01/17 13:19:24;;;;;;;43.90;20.00;;;;;;;-0.65;100.00;98541.97;214940;1307;140064;-91
2024/01/17 13:24:25;;;;;;;38.70;18.70;;;;;;;-0.66;100.00;98525.66;214701;1307;140421;-90
2024/01/17 13:29:26;;;;;;;42.40;19.80;;;;;;;-0.70;100.00;98522.08;215000;1307;139454;-91
2024/01/17 13:34:27;;;;;;;44.00;20.40;;;;;;;-0.71;100.00;98527.69;214685;1307;139662;-92
2024/01/17 13:39:28;;;;;;;41.90;19.80;;;;;;;-0.71;100.00;98526.30;214990;1308;96076;-89
2024/01/17 13:44:29;;;;;;;38.50;17.30;;;;;;;-0.71;100.00;98524.15;214719;1308;140496;-92
2024/01/17 13:49:29;;;;;;;42.30;18.40;;;;;;;-0.71;100.00;98522.00;215344;1307;139273;-91
2024/01/17 13:54:30;;;;;;;42.50;18.10;;;;;;;-0.70;100.00;98516.86;214492;1307;139685;-91
2024/01/17 13:59:31;;;;;;;41.30;18.30;;;;;;;-0.74;100.00;98497.08;214707;1307;139740;-90
2024/01/17 14:04:32;;;;;;;46.40;18.30;;;;;;;-0.81;100.00;98492.02;214436;1308;139762;-91
2024/01/17 14:09:34;;;;;;;44.70;19.50;;;;;;;-0.85;100.00;98485.91;214948;1307;96340;-91
2024/01/17 14:14:36;;;;;;;43.50;18.60;;;;;;;-0.93;100.00;98476.15;214271;1307;139963;-92
2024/01/17 14:19:39;;;;;;;41.60;17.40;;;;;;;-0.93;100.00;98458.80;214906;1307;141197;-92
2024/01/17 14:24:40;;;;;;;41.80;17.90;;;;;;;-0.95;100.00;98465.79;214322;1307;140141;-89
2024/01/17 14:29:41;;;;;;;42.30;17.50;;;;;;;-0.97;100.00;98453.45;214801;1308;140538;-92
2024/01/17 14:34:42;;;;;;;43.50;19.60;;;;;;;-0.97;100.00;98445.36;214359;1308;139493;-92
2024/01/17 14:39:42;;;;;;;47.40;18.80;;;;;;;-0.97;100.00;98440.56;214876;1308;139529;-92
2024/01/17 14:44:43;;;;;;;41.40;19.20;;;;;;;-0.99;100.00;98433.52;214594;1307;139549;-92
2024/01/17 14:49:44;;;;;;;47.70;19.90;;;;;;;-1.00;100.00;98422.02;214816;1308;140145;-91
2024/01/17 14:54:47;;;;;;;44.50;19.50;;;;;;;-1.05;100.00;98408.00;214532;1307;143473;-92
2024/01/17 14:59:48;;;;;;;51.80;21.00;;;;;;;-1.13;100.00;98396.07;214912;1307;140491;-90
2024/01/17 15:04:51;;;;;;;45.20;20.50;;;;;;;-1.20;100.00;98392.21;214540;1307;140016;-92
2024/01/17 15:09:53;;;;;;;43.50;22.50;;;;;;;-1.23;100.00;98389.52;214584;1307;141488;-93
2024/01/17 15:14:55;;;;;;;43.00;21.60;;;;;;;-1.25;100.00;98371.66;215248;1308;96793;-92
2024/01/17 15:19:56;;;;;;;50.00;21.60;;;;;;;-1.23;100.00;98367.70;214357;1307;140175;-93
2024/01/17 15:24:57;;;;;;;49.40;22.70;;;;;;;-1.26;100.00;98348.66;215137;1307;139993;-92
2024/01/17 15:30:00;;;;;;;50.20;23.00;;;;;;;-1.29;100.00;98340.48;214310;1307;140443;-92
2024/01/17 15:35:00;;;;;;;48.90;21.00;;;;;;;-1.31;100.00;98333.05;215000;1307;139867;-92
2024/01/17 15:40:01;;;;;;;49.20;20.70;;;;;;;-1.31;100.00;98325.95;214403;1308;140156;-91
2024/01/17 15:45:02;;;;;;;47.10;21.50;;;;;;;-1.32;100.00;98314.53;215116;1307;96258;-91
2024/01/17 15:50:03;;;;;;;46.10;20.80;;;;;;;-1.33;100.00;98300.79;214206;1308;140470;-91
2024/01/17 15:55:04;;;;;;;45.10;21.40;;;;;;;-1.33;100.00;98293.08;214914;1308;139934;-92
2024/01/17 16:00:09;;;;;;;49.20;22.20;;;;;;;-1.34;100.00;98287.26;214484;1307;140451;-92
2024/01/17 16:05:09;;;;;;;46.80;21.00;;;;;;;-1.40;100.00;98283.13;214993;1307;140463;-92
2024/01/17 16:10:10;;;;;;;49.30;20.80;;;;;;;-1.42;100.00;98277.36;214487;1307;140783;-94
2024/01/17 16:15:14;;;;;;;48.10;20.20;;;;;;;-1.42;100.00;98264.13;215043;1307;95995;-95
2024/01/17 16:20:16;;;;;;;56.60;21.40;;;;;;;-1.40;100.00;98250.84;214470;1307;139807;-93
2024/01/17 16:25:18;;;;;;;52.20;25.90;;;;;;;-1.40;100.00;98249.52;215007;1308;139385;-91
2024/01/17 16:30:21;;;;;;;57.00;27.70;;;;;;;-1.40;100.00;98242.11;214501;1307;139916;-91
2024/01/17 16:35:32;;;;;;;56.90;25.40;;;;;;;-1.41;100.00;98223.21;214744;1307;139748;-93
2024/01/17 16:40:33;;;;;;;51.00;22.80;;;;;;;-1.43;100.00;98207.90;214309;1307;140031;-93
2024/01/17 16:45:57;;;;;;;49.50;26.50;;;;;;;-1.43;100.00;98201.81;215043;1307;97602;-93
2024/01/17 16:51:01;;;;;;;55.50;26.00;;;;;;;-1.42;100.00;98204.31;214693;1307;139886;-92
2024/01/17 16:56:02;;;;;;;55.10;24.70;;;;;;;-1.43;100.00;98190.81;214925;1311;140077;-93
2024/01/17 17:01:03;;;;;;;49.30;22.10;;;;;;;-1.42;100.00;98181.66;214410;1307;140222;-92
2024/01/17 17:06:09;;;;;;;45.10;22.40;;;;;;;-1.43;100.00;98169.05;214872;1307;139539;-93
2024/01/17 17:11:16;;;;;;;48.50;22.20;;;;;;;-1.44;100.00;98159.19;214314;1307;140830;-93
2024/01/17 17:16:25;;;;;;;54.70;25.70;;;;;;;-1.42;100.00;98144.05;215052;1307;139656;-93
2024/01/17 17:21:26;;;;;;;54.50;26.20;;;;;;;-1.42;100.00;98135.10;214612;1307;140984;-92
2024/01/17 17:26:27;;;;;;;52.10;26.20;;;;;;;-1.42;100.00;98128.33;214766;1307;139408;-91
2024/01/17 17:31:28;;;;;;;52.90;27.50;;;;;;;-1.39;100.00;98120.55;214263;1307;140997;-93
2024/01/17 17:36:30;;;;;;;49.80;23.80;;;;;;;-1.38;100.00;98114.55;214747;1307;139461;-93
2024/01/17 17:41:30;;;;;;;50.10;24.50;;;;;;;-1.36;100.00;98102.79;214095;1307;142356;-91
2024/01/17 17:46:35;;;;;;;56.80;26.00;;;;;;;-1.35;100.00;98092.34;214946;1307;139601;-93
2024/01/17 17:51:48;;;;;;;60.30;29.50;;;;;;;-1.34;100.00;98084.33;214622;1307;140166;-94
2024/01/17 17:56:51;;;;;;;51.00;25.50;;;;;;;-1.32;100.00;98071.73;215218;1307;139228;-93
2024/01/17 18:01:53;;;;;;;67.00;28.00;;;;;;;-1.33;100.00;98062.02;214354;1307;140224;-93
2024/01/17 18:07:14;;;;;;;53.80;25.50;;;;;;;-1.29;100.00;98052.06;214718;1310;139595;-94
2024/01/17 18:12:39;;;;;;;60.20;27.50;;;;;;;-1.24;100.00;98049.77;214113;1310;141608;-92
2024/01/17 18:17:39;;;;;;;55.00;25.30;;;;;;;-1.20;100.00;98044.91;214700;1310;138304;-91
2024/01/17 18:22:50;;;;;;;51.20;24.00;;;;;;;-1.18;100.00;98043.18;213896;1310;141006;-90
2024/01/17 18:27:59;;;;;;;63.20;26.10;;;;;;;-1.14;100.00;98037.23;214624;1310;96283;-92
2024/01/17 18:32:59;;;;;;;62.40;28.20;;;;;;;-1.11;100.00;98029.42;213489;1309;141198;-91
2024/01/17 18:38:03;;;;;;;74.00;29.80;;;;;;;-1.08;100.00;98025.02;214399;1309;139470;-92
2024/01/17 18:43:04;;;;;;;63.70;26.60;;;;;;;-1.05;100.00;98012.48;213774;1311;140662;-94
2024/01/17 18:48:18;;;;;;;54.60;24.70;;;;;;;-1.05;100.00;98000.32;214420;1309;139504;-95
2024/01/17 18:53:22;;;;;;;59.80;24.90;;;;;;;-1.02;100.00;97998.20;213779;1310;142246;-91
2024/01/17 18:58:24;;;;;;;56.10;25.70;;;;;;;-0.99;100.00;97987.77;214552;1309;139374;-92
2024/01/17 19:03:25;;;;;;;59.00;26.10;;;;;;;-0.97;100.00;97983.17;213821;1307;140369;-93
2024/01/17 19:08:27;;;;;;;49.20;23.70;;;;;;;-0.91;100.00;97978.02;214856;1308;139617;-94
2024/01/17 19:13:29;;;;;;;48.10;22.50;;;;;;;-0.87;100.00;97969.46;214430;1307;140042;-92
2024/01/17 19:18:35;;;;;;;57.10;25.60;;;;;;;-0.82;100.00;97966.84;215141;1307;139462;-93
2024/01/17 19:23:39;;;;;;;44.70;21.60;;;;;;;-0.79;100.00;97952.14;214424;1307;140464;-92
2024/01/17 19:28:43;;;;;;;51.50;24.30;;;;;;;-0.76;100.00;97947.12;214610;1309;140002;-91
2024/01/17 19:33:46;;;;;;;60.40;28.40;;;;;;;-0.75;100.00;97938.56;214309;1307;326445;-93
2024/01/17 19:38:49;;;;;;;56.50;25.10;;;;;;;-0.74;100.00;97932.10;214889;1307;139595;-93
2024/01/17 19:43:53;;;;;;;65.00;25.70;;;;;;;-0.73;100.00;97934.59;214442;1308;210487;-92
2024/01/17 19:49:02;;;;;;;59.80;25.90;;;;;;;-0.73;100.00;97930.66;214947;1308;140599;-92
2024/01/17 19:54:03;;;;;;;54.60;27.50;;;;;;;-0.72;100.00;97915.16;213895;1308;140543;-93
2024/01/17 19:59:06;;;;;;;56.60;24.10;;;;;;;-0.71;100.00;97887.33;214950;1307;140176;-90
2024/01/17 20:04:07;;;;;;;55.20;26.70;;;;;;;-0.75;100.00;97867.98;214523;1308;140173;-92
2024/01/17 20:09:12;;;;;;;59.50;27.30;;;;;;;-0.80;100.00;97867.83;214749;1307;138635;-93
2024/01/17 20:14:19;;;;;;;62.10;26.50;;;;;;;-0.81;100.00;97869.05;214424;1307;139892;-92
2024/01/17 20:19:20;;;;;;;58.70;27.00;;;;;;;-0.78;100.00;97868.92;214871;1308;139693;-93
2024/01/17 20:24:22;;;;;;;52.90;26.90;;;;;;;-0.77;100.00;97868.64;214338;1307;139760;-92
2024/01/17 20:29:56;;;;;;;53.50;25.90;;;;;;;-0.75;100.00;97860.73;214954;1307;139809;-93
2024/01/17 20:35:07;;;;;;;50.10;25.20;;;;;;;-0.77;100.00;97852.85;214513;1308;139655;-92
2024/01/17 20:40:31;;;;;;;59.20;28.10;;;;;;;-0.71;100.00;97853.06;214359;1308;140306;-93
2024/01/17 20:45:36;;;;;;;60.80;28.80;;;;;;;-0.74;100.00;97839.84;215080;1307;104907;-94
2024/01/17 20:50:41;;;;;;;54.90;26.90;;;;;;;-0.76;100.00;97840.96;214250;1308;139820;-92
2024/01/17 20:55:44;;;;;;;57.60;28.80;;;;;;;-0.76;100.00;97836.80;214850;1308;139947;-92
2024/01/17 21:00:52;;;;;;;67.40;31.80;;;;;;;-0.76;100.00;97828.56;214354;1307;139825;-93
2024/01/17 21:06:18;;;;;;;79.30;34.60;;;;;;;-0.77;100.00;97804.86;214697;1310;139515;-93
2024/01/17 21:11:19;;;;;;;67.70;31.10;;;;;;;-0.77;100.00;97795.59;214023;1310;140007;-93
2024/01/17 21:16:44;;;;;;;72.20;32.40;;;;;;;-0.73;100.00;97798.51;214612;1310;140072;-94
2024/01/17 21:21:56;;;;;;;65.40;31.90;;;;;;;-0.72;100.00;97787.56;214267;1309;139678;-94
2024/01/17 21:26:57;;;;;;;65.30;30.40;;;;;;;-0.74;100.00;97782.30;214642;1310;139412;-92
2024/01/17 21:31:58;;;;;;;62.20;29.50;;;;;;;-0.72;100.00;97774.38;214045;1310;140440;-91
2024/01/17 21:36:59;;;;;;;63.60;30.70;;;;;;;-0.71;100.00;97781.25;214478;1310;139484;-92
2024/01/17 21:42:00;;;;;;;67.90;31.90;;;;;;;-0.70;100.00;97785.65;213810;1310;140878;-92
2024/01/17 21:47:00;;;;;;;72.60;33.70;;;;;;;-0.67;100.00;97784.63;214690;1310;139717;-93
2024/01/17 21:52:00;;;;;;;64.70;31.30;;;;;;;-0.62;100.00;97784.58;214147;1309;140202;-91
2024/01/17 21:57:04;;;;;;;124.10;57.00;;;;;;;-0.60;100.00;97768.34;214654;1310;139812;-92
2024/01/17 22:02:04;;;;;;;132.00;53.90;;;;;;;-0.54;100.00;97759.63;214151;1309;140183;-93
2024/01/17 22:07:05;;;;;;;174.70;66.60;;;;;;;-0.53;100.00;97755.08;215114;1307;139756;-91
2024/01/17 22:12:06;;;;;;;389.10;120.10;;;;;;;-0.48;100.00;97747.48;214438;1307;142218;-92
2024/01/17 22:17:06;;;;;;;590.30;179.60;;;;;;;-0.48;100.00;97741.16;214973;1308;141118;-92
2024/01/17 22:22:07;;;;;;;175.90;66.30;;;;;;;-0.50;100.00;97732.42;214422;1310;140666;-93
2024/01/17 22:27:07;;;;;;;241.50;76.70;;;;;;;-0.53;100.00;97730.45;214792;1308;139815;-92